Página principal
METAR-TAF:

METAR-TAF

Aeroportos :

Córdova, Espanha

latitude: 37-51N, longitude: 004-51W, altura: 90 m

Observação actual do tempo

O boletim foi feito há 39 minutos, às 00:30 UTC
Vento 3 kt de su-sudoeste
Temperatura 19°C
Humidade 78%
Pressão 1020 hPa
Visibilidade 10 km ou mais

METAR: LEBA 160030Z AUTO 21003KT 9999 NCD 19/15 Q1020

Hora: 03:09 (01:09 UTC)

Previsão

O boletim foi feito há 8 horas e 9 minutos, às 17:00 UTC
Previsão válida de 15 às 18 UTC a 16 às 03 UTC
Vento 12 kt de oeste
Visibilidade 10 km ou mais
sem nuvens abaixo de 1500 metros e sem cumulonimbus
Tornando-se
de 15 às 22 UTC a 15 às 24 UTC
Vento 2 kt com direcção variável

TAF: LEBA 151700Z 1518/1603 26012KT CAVOK BECMG 1522/1524 VRB02KT

Observações e previsões do tempo de mais de 4000 aeroportos (mensagens METAR e TAF).

As estações disponíveis são os pontos amarelos e vermelhos sobre o mapa.

Mova o rato sobre o mapa para ver o nome da estação.

Depois clique no ponto para visualizar as observações e previsões meteorológicas.

Para alterar o mapa : clique nos botões verdes com uma cruz preta para aumentar o zoom; no botão verde com uma pitada de zoom; ou nas setas verdes para mapas adjacentes.


METAR-TAF: